sensor_id;sensor_type;location;lat;lon;timestamp;P1;durP1;ratioP1;P2;durP2;ratioP2
21591;SDS011;10958;50.892;3.992;2023-02-11T00:03:52;18.63;;;6.50;;
21591;SDS011;10958;50.892;3.992;2023-02-11T00:06:18;16.52;;;6.47;;
21591;SDS011;10958;50.892;3.992;2023-02-11T00:08:44;18.13;;;6.50;;
21591;SDS011;10958;50.892;3.992;2023-02-11T00:11:11;14.07;;;6.70;;
21591;SDS011;10958;50.892;3.992;2023-02-11T00:13:41;14.13;;;6.25;;
21591;SDS011;10958;50.892;3.992;2023-02-11T00:16:11;19.92;;;6.90;;
21591;SDS011;10958;50.892;3.992;2023-02-11T00:18:39;14.80;;;6.85;;
21591;SDS011;10958;50.892;3.992;2023-02-11T00:21:08;16.55;;;6.72;;
21591;SDS011;10958;50.892;3.992;2023-02-11T00:23:39;17.17;;;7.40;;
21591;SDS011;10958;50.892;3.992;2023-02-11T00:26:15;18.02;;;6.97;;
21591;SDS011;10958;50.892;3.992;2023-02-11T00:28:46;13.75;;;6.68;;
21591;SDS011;10958;50.892;3.992;2023-02-11T00:31:13;22.30;;;7.07;;
21591;SDS011;10958;50.892;3.992;2023-02-11T00:33:39;14.00;;;6.60;;
21591;SDS011;10958;50.892;3.992;2023-02-11T00:36:07;12.85;;;6.47;;
21591;SDS011;10958;50.892;3.992;2023-02-11T00:38:35;13.88;;;6.55;;
21591;SDS011;10958;50.892;3.992;2023-02-11T00:41:02;19.30;;;7.43;;
21591;SDS011;10958;50.892;3.992;2023-02-11T00:43:28;16.90;;;6.90;;
21591;SDS011;10958;50.892;3.992;2023-02-11T00:45:53;13.63;;;6.40;;
21591;SDS011;10958;50.892;3.992;2023-02-11T00:48:19;16.75;;;6.95;;
21591;SDS011;10958;50.892;3.992;2023-02-11T00:50:45;15.63;;;6.15;;
21591;SDS011;10958;50.892;3.992;2023-02-11T00:53:13;19.80;;;6.65;;
21591;SDS011;10958;50.892;3.992;2023-02-11T00:55:42;18.27;;;7.50;;
21591;SDS011;10958;50.892;3.992;2023-02-11T00:58:10;15.38;;;6.75;;
21591;SDS011;10958;50.892;3.992;2023-02-11T01:00:36;17.00;;;6.63;;
21591;SDS011;10958;50.892;3.992;2023-02-11T01:03:04;17.42;;;6.57;;
21591;SDS011;10958;50.892;3.992;2023-02-11T01:05:29;12.75;;;4.68;;
21591;SDS011;10958;50.892;3.992;2023-02-11T01:07:55;17.50;;;6.90;;
21591;SDS011;10958;50.892;3.992;2023-02-11T01:10:21;22.63;;;8.10;;
21591;SDS011;10958;50.892;3.992;2023-02-11T01:12:47;19.55;;;7.82;;
21591;SDS011;10958;50.892;3.992;2023-02-11T01:15:13;18.05;;;7.65;;
21591;SDS011;10958;50.892;3.992;2023-02-11T01:17:40;22.65;;;8.73;;
21591;SDS011;10958;50.892;3.992;2023-02-11T01:20:07;20.58;;;8.63;;
21591;SDS011;10958;50.892;3.992;2023-02-11T01:22:40;22.25;;;8.65;;
21591;SDS011;10958;50.892;3.992;2023-02-11T01:25:06;22.60;;;8.52;;
21591;SDS011;10958;50.892;3.992;2023-02-11T01:27:35;24.60;;;8.57;;
21591;SDS011;10958;50.892;3.992;2023-02-11T01:30:04;26.90;;;9.07;;
21591;SDS011;10958;50.892;3.992;2023-02-11T01:32:33;16.73;;;7.93;;
21591;SDS011;10958;50.892;3.992;2023-02-11T01:34:59;20.67;;;8.48;;
21591;SDS011;10958;50.892;3.992;2023-02-11T01:37:25;23.25;;;8.13;;
21591;SDS011;10958;50.892;3.992;2023-02-11T01:39:51;22.77;;;9.20;;
21591;SDS011;10958;50.892;3.992;2023-02-11T01:42:17;18.73;;;8.40;;
21591;SDS011;10958;50.892;3.992;2023-02-11T01:44:47;21.58;;;8.43;;
21591;SDS011;10958;50.892;3.992;2023-02-11T01:47:15;25.05;;;8.82;;
21591;SDS011;10958;50.892;3.992;2023-02-11T01:49:43;19.67;;;8.30;;
21591;SDS011;10958;50.892;3.992;2023-02-11T01:52:24;22.92;;;8.48;;
21591;SDS011;10958;50.892;3.992;2023-02-11T01:54:59;22.15;;;8.77;;
21591;SDS011;10958;50.892;3.992;2023-02-11T01:57:47;21.85;;;6.07;;
21591;SDS011;10958;50.892;3.992;2023-02-11T02:00:23;27.42;;;8.63;;
21591;SDS011;10958;50.892;3.992;2023-02-11T02:05:40;21.42;;;8.00;;
21591;SDS011;10958;50.892;3.992;2023-02-11T02:08:19;20.50;;;8.15;;
21591;SDS011;10958;50.892;3.992;2023-02-11T02:10:53;25.25;;;9.15;;
21591;SDS011;10958;50.892;3.992;2023-02-11T02:13:23;23.25;;;7.13;;
21591;SDS011;10958;50.892;3.992;2023-02-11T02:16:12;21.63;;;8.25;;
21591;SDS011;10958;50.892;3.992;2023-02-11T02:30:32;25.75;;;8.23;;
21591;SDS011;10958;50.892;3.992;2023-02-11T02:36:13;18.48;;;7.60;;
21591;SDS011;10958;50.892;3.992;2023-02-11T02:41:32;22.08;;;7.07;;
21591;SDS011;10958;50.892;3.992;2023-02-11T02:44:01;14.02;;;6.60;;
21591;SDS011;10958;50.892;3.992;2023-02-11T02:46:28;20.02;;;6.72;;
21591;SDS011;10958;50.892;3.992;2023-02-11T02:48:58;21.40;;;8.10;;
21591;SDS011;10958;50.892;3.992;2023-02-11T02:51:26;23.50;;;7.10;;
21591;SDS011;10958;50.892;3.992;2023-02-11T02:59:26;20.83;;;7.40;;
21591;SDS011;10958;50.892;3.992;2023-02-11T03:04:47;17.92;;;7.47;;
21591;SDS011;10958;50.892;3.992;2023-02-11T03:10:43;14.43;;;7.22;;
21591;SDS011;10958;50.892;3.992;2023-02-11T03:13:11;19.38;;;6.55;;
21591;SDS011;10958;50.892;3.992;2023-02-11T03:15:43;13.43;;;6.78;;
21591;SDS011;10958;50.892;3.992;2023-02-11T03:18:14;18.48;;;6.95;;
21591;SDS011;10958;50.892;3.992;2023-02-11T03:20:47;21.30;;;7.28;;
21591;SDS011;10958;50.892;3.992;2023-02-11T03:23:29;17.63;;;7.65;;
21591;SDS011;10958;50.892;3.992;2023-02-11T03:26:13;21.13;;;8.02;;
21591;SDS011;10958;50.892;3.992;2023-02-11T03:28:58;18.40;;;7.10;;
21591;SDS011;10958;50.892;3.992;2023-02-11T03:31:30;20.83;;;7.05;;
21591;SDS011;10958;50.892;3.992;2023-02-11T03:37:11;16.00;;;7.25;;
21591;SDS011;10958;50.892;3.992;2023-02-11T03:39:44;24.23;;;7.22;;
21591;SDS011;10958;50.892;3.992;2023-02-11T03:42:41;21.73;;;7.45;;
21591;SDS011;10958;50.892;3.992;2023-02-11T03:45:17;16.90;;;7.78;;
21591;SDS011;10958;50.892;3.992;2023-02-11T03:47:46;19.25;;;7.03;;
21591;SDS011;10958;50.892;3.992;2023-02-11T03:50:18;17.63;;;7.55;;
21591;SDS011;10958;50.892;3.992;2023-02-11T03:52:46;15.55;;;7.25;;
21591;SDS011;10958;50.892;3.992;2023-02-11T03:55:17;18.00;;;7.75;;
21591;SDS011;10958;50.892;3.992;2023-02-11T03:57:49;22.58;;;7.07;;
21591;SDS011;10958;50.892;3.992;2023-02-11T04:00:16;19.23;;;8.00;;
21591;SDS011;10958;50.892;3.992;2023-02-11T04:02:45;21.63;;;7.43;;
21591;SDS011;10958;50.892;3.992;2023-02-11T04:05:14;20.55;;;8.73;;
21591;SDS011;10958;50.892;3.992;2023-02-11T04:07:40;19.90;;;7.93;;
21591;SDS011;10958;50.892;3.992;2023-02-11T04:10:06;19.52;;;7.85;;
21591;SDS011;10958;50.892;3.992;2023-02-11T04:12:32;23.63;;;8.43;;
21591;SDS011;10958;50.892;3.992;2023-02-11T04:14:58;17.10;;;7.55;;
21591;SDS011;10958;50.892;3.992;2023-02-11T04:17:24;20.40;;;7.78;;
21591;SDS011;10958;50.892;3.992;2023-02-11T04:19:49;19.85;;;7.78;;
21591;SDS011;10958;50.892;3.992;2023-02-11T04:22:15;15.68;;;7.82;;
21591;SDS011;10958;50.892;3.992;2023-02-11T04:24:41;22.00;;;8.23;;
21591;SDS011;10958;50.892;3.992;2023-02-11T04:27:08;22.90;;;8.65;;
21591;SDS011;10958;50.892;3.992;2023-02-11T04:29:36;22.87;;;8.93;;
21591;SDS011;10958;50.892;3.992;2023-02-11T04:32:02;17.70;;;8.15;;
21591;SDS011;10958;50.892;3.992;2023-02-11T04:34:30;13.57;;;7.70;;
21591;SDS011;10958;50.892;3.992;2023-02-11T04:36:58;19.90;;;7.55;;
21591;SDS011;10958;50.892;3.992;2023-02-11T04:39:24;21.63;;;8.52;;
21591;SDS011;10958;50.892;3.992;2023-02-11T04:41:50;22.77;;;8.43;;
21591;SDS011;10958;50.892;3.992;2023-02-11T04:44:15;17.25;;;8.15;;
21591;SDS011;10958;50.892;3.992;2023-02-11T04:46:44;20.95;;;8.80;;
21591;SDS011;10958;50.892;3.992;2023-02-11T04:49:13;21.73;;;7.80;;
21591;SDS011;10958;50.892;3.992;2023-02-11T04:51:40;21.58;;;8.65;;
21591;SDS011;10958;50.892;3.992;2023-02-11T04:54:05;19.60;;;8.15;;
21591;SDS011;10958;50.892;3.992;2023-02-11T04:56:31;20.10;;;8.43;;
21591;SDS011;10958;50.892;3.992;2023-02-11T04:58:57;20.67;;;8.38;;
21591;SDS011;10958;50.892;3.992;2023-02-11T05:01:25;21.60;;;8.60;;
21591;SDS011;10958;50.892;3.992;2023-02-11T05:03:51;21.23;;;8.63;;
21591;SDS011;10958;50.892;3.992;2023-02-11T05:06:17;22.10;;;10.48;;
21591;SDS011;10958;50.892;3.992;2023-02-11T05:08:43;18.98;;;9.18;;
21591;SDS011;10958;50.892;3.992;2023-02-11T05:11:14;24.92;;;9.95;;
21591;SDS011;10958;50.892;3.992;2023-02-11T05:13:41;23.98;;;10.25;;
21591;SDS011;10958;50.892;3.992;2023-02-11T05:16:08;21.15;;;9.40;;
21591;SDS011;10958;50.892;3.992;2023-02-11T05:18:36;17.77;;;8.95;;
21591;SDS011;10958;50.892;3.992;2023-02-11T05:21:08;22.25;;;9.52;;
21591;SDS011;10958;50.892;3.992;2023-02-11T05:23:35;23.33;;;11.38;;
21591;SDS011;10958;50.892;3.992;2023-02-11T05:26:01;26.67;;;10.48;;
21591;SDS011;10958;50.892;3.992;2023-02-11T05:28:28;23.20;;;10.48;;
21591;SDS011;10958;50.892;3.992;2023-02-11T05:30:59;18.45;;;9.88;;
21591;SDS011;10958;50.892;3.992;2023-02-11T05:33:25;20.48;;;9.45;;
21591;SDS011;10958;50.892;3.992;2023-02-11T05:35:56;22.73;;;10.10;;
21591;SDS011;10958;50.892;3.992;2023-02-11T05:38:23;18.67;;;9.05;;
21591;SDS011;10958;50.892;3.992;2023-02-11T05:40:48;21.35;;;9.70;;
21591;SDS011;10958;50.892;3.992;2023-02-11T05:43:14;27.00;;;9.75;;
21591;SDS011;10958;50.892;3.992;2023-02-11T05:45:42;24.00;;;9.75;;
21591;SDS011;10958;50.892;3.992;2023-02-11T05:48:08;18.17;;;9.57;;
21591;SDS011;10958;50.892;3.992;2023-02-11T05:50:33;25.90;;;10.45;;
21591;SDS011;10958;50.892;3.992;2023-02-11T05:53:04;23.15;;;10.90;;
21591;SDS011;10958;50.892;3.992;2023-02-11T05:55:31;34.55;;;11.60;;
21591;SDS011;10958;50.892;3.992;2023-02-11T05:57:57;23.33;;;10.40;;
21591;SDS011;10958;50.892;3.992;2023-02-11T06:00:23;24.02;;;11.20;;
21591;SDS011;10958;50.892;3.992;2023-02-11T06:02:50;21.25;;;11.32;;
21591;SDS011;10958;50.892;3.992;2023-02-11T06:05:15;23.45;;;11.18;;
21591;SDS011;10958;50.892;3.992;2023-02-11T06:07:41;22.52;;;11.38;;
21591;SDS011;10958;50.892;3.992;2023-02-11T06:10:07;24.38;;;11.43;;
21591;SDS011;10958;50.892;3.992;2023-02-11T06:12:33;26.15;;;11.15;;
21591;SDS011;10958;50.892;3.992;2023-02-11T06:14:59;21.67;;;12.05;;
21591;SDS011;10958;50.892;3.992;2023-02-11T06:17:25;25.20;;;11.60;;
21591;SDS011;10958;50.892;3.992;2023-02-11T06:19:52;20.63;;;11.85;;
21591;SDS011;10958;50.892;3.992;2023-02-11T06:22:20;27.65;;;11.30;;
21591;SDS011;10958;50.892;3.992;2023-02-11T06:24:46;21.02;;;11.20;;
21591;SDS011;10958;50.892;3.992;2023-02-11T06:27:11;26.42;;;11.98;;
21591;SDS011;10958;50.892;3.992;2023-02-11T06:29:39;26.30;;;12.57;;
21591;SDS011;10958;50.892;3.992;2023-02-11T06:32:05;16.60;;;9.30;;
21591;SDS011;10958;50.892;3.992;2023-02-11T06:34:31;29.55;;;13.73;;
21591;SDS011;10958;50.892;3.992;2023-02-11T06:36:58;26.63;;;12.48;;
21591;SDS011;10958;50.892;3.992;2023-02-11T06:39:24;29.70;;;13.45;;
21591;SDS011;10958;50.892;3.992;2023-02-11T06:41:50;29.38;;;12.80;;
21591;SDS011;10958;50.892;3.992;2023-02-11T06:44:15;26.80;;;12.77;;
21591;SDS011;10958;50.892;3.992;2023-02-11T06:46:43;31.65;;;13.80;;
21591;SDS011;10958;50.892;3.992;2023-02-11T06:49:09;24.20;;;14.45;;
21591;SDS011;10958;50.892;3.992;2023-02-11T06:51:34;25.98;;;13.05;;
21591;SDS011;10958;50.892;3.992;2023-02-11T06:54:00;28.10;;;13.13;;
21591;SDS011;10958;50.892;3.992;2023-02-11T06:56:26;24.55;;;13.43;;
21591;SDS011;10958;50.892;3.992;2023-02-11T06:58:52;24.95;;;13.88;;
21591;SDS011;10958;50.892;3.992;2023-02-11T07:01:22;27.50;;;13.77;;
21591;SDS011;10958;50.892;3.992;2023-02-11T07:03:50;29.25;;;14.23;;
21591;SDS011;10958;50.892;3.992;2023-02-11T07:06:17;31.35;;;14.00;;
21591;SDS011;10958;50.892;3.992;2023-02-11T07:08:45;26.63;;;13.18;;
21591;SDS011;10958;50.892;3.992;2023-02-11T07:11:12;30.55;;;13.73;;
21591;SDS011;10958;50.892;3.992;2023-02-11T07:13:52;30.67;;;14.43;;
21591;SDS011;10958;50.892;3.992;2023-02-11T07:16:19;33.17;;;13.07;;
21591;SDS011;10958;50.892;3.992;2023-02-11T07:18:45;26.33;;;13.75;;
21591;SDS011;10958;50.892;3.992;2023-02-11T07:21:13;29.45;;;13.35;;
21591;SDS011;10958;50.892;3.992;2023-02-11T07:23:43;35.30;;;14.50;;
21591;SDS011;10958;50.892;3.992;2023-02-11T07:26:11;24.38;;;12.93;;
21591;SDS011;10958;50.892;3.992;2023-02-11T07:28:39;30.20;;;13.80;;
21591;SDS011;10958;50.892;3.992;2023-02-11T07:31:15;28.17;;;13.82;;
21591;SDS011;10958;50.892;3.992;2023-02-11T07:33:45;34.83;;;15.13;;
21591;SDS011;10958;50.892;3.992;2023-02-11T07:36:12;29.85;;;15.75;;
21591;SDS011;10958;50.892;3.992;2023-02-11T07:38:39;35.80;;;16.60;;
21591;SDS011;10958;50.892;3.992;2023-02-11T07:41:06;28.95;;;16.63;;
21591;SDS011;10958;50.892;3.992;2023-02-11T07:43:37;35.63;;;17.58;;
21591;SDS011;10958;50.892;3.992;2023-02-11T07:46:04;36.40;;;18.20;;
21591;SDS011;10958;50.892;3.992;2023-02-11T07:48:31;33.97;;;18.42;;
21591;SDS011;10958;50.892;3.992;2023-02-11T07:54:17;35.67;;;18.00;;
21591;SDS011;10958;50.892;3.992;2023-02-11T07:56:43;42.50;;;17.92;;
21591;SDS011;10958;50.892;3.992;2023-02-11T07:59:09;41.03;;;18.83;;
21591;SDS011;10958;50.892;3.992;2023-02-11T08:01:35;34.83;;;18.40;;
21591;SDS011;10958;50.892;3.992;2023-02-11T08:04:04;36.55;;;17.77;;
21591;SDS011;10958;50.892;3.992;2023-02-11T08:06:30;36.10;;;18.52;;
21591;SDS011;10958;50.892;3.992;2023-02-11T08:09:06;37.45;;;18.10;;
21591;SDS011;10958;50.892;3.992;2023-02-11T08:11:36;32.67;;;18.08;;
21591;SDS011;10958;50.892;3.992;2023-02-11T08:14:04;37.95;;;18.58;;
21591;SDS011;10958;50.892;3.992;2023-02-11T08:16:30;36.05;;;18.25;;
21591;SDS011;10958;50.892;3.992;2023-02-11T08:18:59;47.28;;;20.17;;
21591;SDS011;10958;50.892;3.992;2023-02-11T08:21:27;36.80;;;17.58;;
21591;SDS011;10958;50.892;3.992;2023-02-11T08:23:53;34.03;;;18.65;;
21591;SDS011;10958;50.892;3.992;2023-02-11T08:26:20;37.85;;;18.55;;
21591;SDS011;10958;50.892;3.992;2023-02-11T08:28:50;34.03;;;19.83;;
21591;SDS011;10958;50.892;3.992;2023-02-11T08:31:20;39.55;;;18.98;;
21591;SDS011;10958;50.892;3.992;2023-02-11T08:33:48;42.80;;;19.83;;
21591;SDS011;10958;50.892;3.992;2023-02-11T08:36:15;41.10;;;20.67;;
21591;SDS011;10958;50.892;3.992;2023-02-11T08:38:43;43.00;;;20.92;;
21591;SDS011;10958;50.892;3.992;2023-02-11T08:41:09;41.00;;;21.35;;
21591;SDS011;10958;50.892;3.992;2023-02-11T08:43:35;43.15;;;22.33;;
21591;SDS011;10958;50.892;3.992;2023-02-11T08:46:05;49.28;;;22.98;;
21591;SDS011;10958;50.892;3.992;2023-02-11T08:48:32;42.75;;;21.60;;
21591;SDS011;10958;50.892;3.992;2023-02-11T08:50:58;46.67;;;22.70;;
21591;SDS011;10958;50.892;3.992;2023-02-11T08:53:26;42.22;;;22.08;;
21591;SDS011;10958;50.892;3.992;2023-02-11T08:55:53;51.05;;;22.90;;
21591;SDS011;10958;50.892;3.992;2023-02-11T08:58:19;50.88;;;23.38;;
21591;SDS011;10958;50.892;3.992;2023-02-11T09:00:46;42.63;;;22.83;;
21591;SDS011;10958;50.892;3.992;2023-02-11T09:03:13;47.42;;;24.48;;
21591;SDS011;10958;50.892;3.992;2023-02-11T09:05:40;49.05;;;24.20;;
21591;SDS011;10958;50.892;3.992;2023-02-11T09:08:07;43.75;;;23.63;;
21591;SDS011;10958;50.892;3.992;2023-02-11T09:10:33;47.85;;;23.95;;
21591;SDS011;10958;50.892;3.992;2023-02-11T09:12:59;51.03;;;24.05;;
21591;SDS011;10958;50.892;3.992;2023-02-11T09:15:25;46.00;;;23.88;;
21591;SDS011;10958;50.892;3.992;2023-02-11T09:17:50;52.63;;;26.15;;
21591;SDS011;10958;50.892;3.992;2023-02-11T09:20:16;50.10;;;23.83;;
21591;SDS011;10958;50.892;3.992;2023-02-11T09:22:43;43.63;;;22.77;;
21591;SDS011;10958;50.892;3.992;2023-02-11T09:25:11;50.08;;;24.00;;
21591;SDS011;10958;50.892;3.992;2023-02-11T09:27:36;52.42;;;25.38;;
21591;SDS011;10958;50.892;3.992;2023-02-11T09:30:02;47.33;;;24.77;;
21591;SDS011;10958;50.892;3.992;2023-02-11T09:32:31;47.08;;;24.90;;
21591;SDS011;10958;50.892;3.992;2023-02-11T09:34:56;51.58;;;25.00;;
21591;SDS011;10958;50.892;3.992;2023-02-11T09:37:25;50.05;;;25.00;;
21591;SDS011;10958;50.892;3.992;2023-02-11T09:39:51;54.22;;;25.58;;
21591;SDS011;10958;50.892;3.992;2023-02-11T09:45:05;47.58;;;24.23;;
21591;SDS011;10958;50.892;3.992;2023-02-11T09:47:41;47.22;;;23.20;;
21591;SDS011;10958;50.892;3.992;2023-02-11T09:50:14;50.35;;;23.77;;
21591;SDS011;10958;50.892;3.992;2023-02-11T09:52:49;50.28;;;23.65;;
21591;SDS011;10958;50.892;3.992;2023-02-11T09:55:32;48.38;;;23.98;;
21591;SDS011;10958;50.892;3.992;2023-02-11T09:58:02;42.03;;;23.63;;
21591;SDS011;10958;50.892;3.992;2023-02-11T10:00:39;49.80;;;24.92;;
21591;SDS011;10958;50.892;3.992;2023-02-11T10:05:55;47.63;;;24.15;;
21591;SDS011;10958;50.892;3.992;2023-02-11T10:11:30;46.30;;;24.05;;
21591;SDS011;10958;50.892;3.992;2023-02-11T10:14:52;53.10;;;25.05;;
21591;SDS011;10958;50.892;3.992;2023-02-11T10:17:16;49.05;;;24.50;;
21591;SDS011;10958;50.892;3.992;2023-02-11T10:22:30;53.40;;;24.85;;
21591;SDS011;10958;50.892;3.992;2023-02-11T10:25:05;44.08;;;24.02;;
21591;SDS011;10958;50.892;3.992;2023-02-11T10:27:46;48.75;;;25.65;;
21591;SDS011;10958;50.892;3.992;2023-02-11T10:30:20;51.45;;;26.40;;
21591;SDS011;10958;50.892;3.992;2023-02-11T10:32:59;50.90;;;26.05;;
21591;SDS011;10958;50.892;3.992;2023-02-11T10:35:30;51.67;;;26.35;;
21591;SDS011;10958;50.892;3.992;2023-02-11T10:37:56;51.67;;;28.23;;
21591;SDS011;10958;50.892;3.992;2023-02-11T10:40:27;51.50;;;27.17;;
21591;SDS011;10958;50.892;3.992;2023-02-11T10:42:56;53.33;;;27.83;;
21591;SDS011;10958;50.892;3.992;2023-02-11T10:45:29;54.78;;;28.08;;
21591;SDS011;10958;50.892;3.992;2023-02-11T10:47:56;47.72;;;25.90;;
21591;SDS011;10958;50.892;3.992;2023-02-11T10:50:26;40.03;;;21.13;;
21591;SDS011;10958;50.892;3.992;2023-02-11T10:53:10;47.35;;;27.08;;
21591;SDS011;10958;50.892;3.992;2023-02-11T10:55:37;50.90;;;27.50;;
21591;SDS011;10958;50.892;3.992;2023-02-11T10:58:18;49.33;;;26.02;;
21591;SDS011;10958;50.892;3.992;2023-02-11T11:03:37;49.90;;;27.63;;
21591;SDS011;10958;50.892;3.992;2023-02-11T11:06:09;48.35;;;28.50;;
21591;SDS011;10958;50.892;3.992;2023-02-11T11:08:43;50.80;;;28.10;;
21591;SDS011;10958;50.892;3.992;2023-02-11T11:11:18;52.47;;;27.48;;
21591;SDS011;10958;50.892;3.992;2023-02-11T11:16:37;46.90;;;27.57;;
21591;SDS011;10958;50.892;3.992;2023-02-11T11:21:35;48.97;;;27.60;;
21591;SDS011;10958;50.892;3.992;2023-02-11T11:24:13;52.03;;;27.45;;
21591;SDS011;10958;50.892;3.992;2023-02-11T11:26:58;46.80;;;26.92;;
21591;SDS011;10958;50.892;3.992;2023-02-11T11:29:29;48.28;;;26.45;;
21591;SDS011;10958;50.892;3.992;2023-02-11T11:32:26;49.70;;;27.98;;
21591;SDS011;10958;50.892;3.992;2023-02-11T11:35:00;42.70;;;26.27;;
21591;SDS011;10958;50.892;3.992;2023-02-11T11:37:31;47.67;;;27.65;;
21591;SDS011;10958;50.892;3.992;2023-02-11T11:42:33;44.33;;;25.10;;
21591;SDS011;10958;50.892;3.992;2023-02-11T11:45:01;44.92;;;26.65;;
21591;SDS011;10958;50.892;3.992;2023-02-11T11:58:55;45.97;;;26.10;;
21591;SDS011;10958;50.892;3.992;2023-02-11T12:20:26;40.72;;;25.40;;
21591;SDS011;10958;50.892;3.992;2023-02-11T12:28:59;40.78;;;25.13;;
21591;SDS011;10958;50.892;3.992;2023-02-11T12:31:39;40.17;;;25.45;;
21591;SDS011;10958;50.892;3.992;2023-02-11T12:40:44;43.92;;;26.05;;
21591;SDS011;10958;50.892;3.992;2023-02-11T12:51:46;45.50;;;26.85;;
21591;SDS011;10958;50.892;3.992;2023-02-11T12:57:06;45.30;;;26.10;;
21591;SDS011;10958;50.892;3.992;2023-02-11T13:05:21;44.75;;;26.90;;
21591;SDS011;10958;50.892;3.992;2023-02-11T13:10:39;40.85;;;25.52;;
21591;SDS011;10958;50.892;3.992;2023-02-11T13:15:47;40.50;;;26.05;;
21591;SDS011;10958;50.892;3.992;2023-02-11T13:26:24;45.58;;;27.50;;
21591;SDS011;10958;50.892;3.992;2023-02-11T13:29:19;43.58;;;28.02;;
21591;SDS011;10958;50.892;3.992;2023-02-11T13:32:14;43.70;;;28.42;;
21591;SDS011;10958;50.892;3.992;2023-02-11T13:42:57;39.42;;;26.55;;
21591;SDS011;10958;50.892;3.992;2023-02-11T13:48:18;47.03;;;28.52;;
21591;SDS011;10958;50.892;3.992;2023-02-11T13:50:50;43.45;;;28.27;;
21591;SDS011;10958;50.892;3.992;2023-02-11T13:53:19;41.72;;;27.88;;
21591;SDS011;10958;50.892;3.992;2023-02-11T13:55:47;47.70;;;29.83;;
21591;SDS011;10958;50.892;3.992;2023-02-11T14:00:51;47.83;;;31.17;;
21591;SDS011;10958;50.892;3.992;2023-02-11T14:03:22;49.05;;;30.80;;
21591;SDS011;10958;50.892;3.992;2023-02-11T14:09:00;46.45;;;30.38;;
21591;SDS011;10958;50.892;3.992;2023-02-11T14:14:18;49.10;;;31.35;;
21591;SDS011;10958;50.892;3.992;2023-02-11T14:19:30;52.33;;;31.50;;
21591;SDS011;10958;50.892;3.992;2023-02-11T14:27:00;52.22;;;31.90;;
21591;SDS011;10958;50.892;3.992;2023-02-11T14:41:43;52.03;;;32.40;;
21591;SDS011;10958;50.892;3.992;2023-02-11T14:44:21;54.95;;;33.15;;
21591;SDS011;10958;50.892;3.992;2023-02-11T14:46:51;54.75;;;32.42;;
21591;SDS011;10958;50.892;3.992;2023-02-11T14:49:23;59.22;;;34.50;;
21591;SDS011;10958;50.892;3.992;2023-02-11T14:52:38;50.17;;;30.90;;
21591;SDS011;10958;50.892;3.992;2023-02-11T14:58:03;52.95;;;31.02;;
21591;SDS011;10958;50.892;3.992;2023-02-11T15:03:28;47.65;;;30.77;;
21591;SDS011;10958;50.892;3.992;2023-02-11T15:08:31;47.20;;;29.35;;
21591;SDS011;10958;50.892;3.992;2023-02-11T15:11:01;49.90;;;29.33;;
21591;SDS011;10958;50.892;3.992;2023-02-11T15:13:32;46.90;;;29.55;;
21591;SDS011;10958;50.892;3.992;2023-02-11T15:16:02;46.80;;;29.83;;
21591;SDS011;10958;50.892;3.992;2023-02-11T15:18:38;54.55;;;30.85;;
21591;SDS011;10958;50.892;3.992;2023-02-11T15:21:07;43.88;;;28.92;;
21591;SDS011;10958;50.892;3.992;2023-02-11T15:23:34;52.22;;;30.42;;
21591;SDS011;10958;50.892;3.992;2023-02-11T15:26:01;47.15;;;29.15;;
21591;SDS011;10958;50.892;3.992;2023-02-11T15:28:33;48.00;;;27.25;;
21591;SDS011;10958;50.892;3.992;2023-02-11T15:31:13;44.90;;;27.67;;
21591;SDS011;10958;50.892;3.992;2023-02-11T15:33:40;48.90;;;27.40;;
21591;SDS011;10958;50.892;3.992;2023-02-11T15:36:08;43.53;;;28.02;;
21591;SDS011;10958;50.892;3.992;2023-02-11T15:38:36;40.58;;;26.25;;
21591;SDS011;10958;50.892;3.992;2023-02-11T15:41:03;42.40;;;27.40;;
21591;SDS011;10958;50.892;3.992;2023-02-11T15:46:10;42.17;;;25.23;;
21591;SDS011;10958;50.892;3.992;2023-02-11T15:48:44;51.30;;;27.52;;
21591;SDS011;10958;50.892;3.992;2023-02-11T15:51:19;39.90;;;25.95;;
21591;SDS011;10958;50.892;3.992;2023-02-11T15:53:53;40.53;;;25.98;;
21591;SDS011;10958;50.892;3.992;2023-02-11T15:56:27;42.55;;;25.70;;
21591;SDS011;10958;50.892;3.992;2023-02-11T15:59:13;36.80;;;24.13;;
21591;SDS011;10958;50.892;3.992;2023-02-11T16:01:40;38.00;;;24.52;;
21591;SDS011;10958;50.892;3.992;2023-02-11T16:04:12;39.72;;;24.15;;
21591;SDS011;10958;50.892;3.992;2023-02-11T16:06:41;40.88;;;24.92;;
21591;SDS011;10958;50.892;3.992;2023-02-11T16:19:42;37.50;;;23.60;;
21591;SDS011;10958;50.892;3.992;2023-02-11T16:22:16;35.67;;;24.23;;
21591;SDS011;10958;50.892;3.992;2023-02-11T16:24:45;41.80;;;26.75;;
21591;SDS011;10958;50.892;3.992;2023-02-11T16:27:26;40.72;;;23.75;;
21591;SDS011;10958;50.892;3.992;2023-02-11T16:29:56;41.47;;;25.35;;
21591;SDS011;10958;50.892;3.992;2023-02-11T16:32:23;38.35;;;23.65;;
21591;SDS011;10958;50.892;3.992;2023-02-11T16:34:52;39.72;;;24.08;;
21591;SDS011;10958;50.892;3.992;2023-02-11T16:37:19;39.72;;;24.48;;
21591;SDS011;10958;50.892;3.992;2023-02-11T16:39:45;39.40;;;24.15;;
21591;SDS011;10958;50.892;3.992;2023-02-11T16:42:11;40.10;;;25.00;;
21591;SDS011;10958;50.892;3.992;2023-02-11T16:44:37;38.13;;;24.42;;
21591;SDS011;10958;50.892;3.992;2023-02-11T16:47:05;37.53;;;24.08;;
21591;SDS011;10958;50.892;3.992;2023-02-11T16:49:42;39.47;;;23.52;;
21591;SDS011;10958;50.892;3.992;2023-02-11T16:54:37;36.33;;;23.52;;
21591;SDS011;10958;50.892;3.992;2023-02-11T16:57:16;42.28;;;25.75;;
21591;SDS011;10958;50.892;3.992;2023-02-11T16:59:46;38.38;;;24.20;;
21591;SDS011;10958;50.892;3.992;2023-02-11T17:02:22;38.58;;;24.52;;
21591;SDS011;10958;50.892;3.992;2023-02-11T17:04:54;42.45;;;24.98;;
21591;SDS011;10958;50.892;3.992;2023-02-11T17:10:21;38.88;;;23.40;;
21591;SDS011;10958;50.892;3.992;2023-02-11T17:12:54;35.60;;;24.02;;
21591;SDS011;10958;50.892;3.992;2023-02-11T17:15:21;45.28;;;25.80;;
21591;SDS011;10958;50.892;3.992;2023-02-11T17:17:46;40.58;;;26.08;;
21591;SDS011;10958;50.892;3.992;2023-02-11T17:20:13;41.60;;;26.05;;
21591;SDS011;10958;50.892;3.992;2023-02-11T17:22:43;39.38;;;26.08;;
21591;SDS011;10958;50.892;3.992;2023-02-11T17:25:08;43.83;;;27.33;;
21591;SDS011;10958;50.892;3.992;2023-02-11T17:27:34;46.08;;;27.67;;
21591;SDS011;10958;50.892;3.992;2023-02-11T17:30:00;39.92;;;26.08;;
21591;SDS011;10958;50.892;3.992;2023-02-11T17:32:28;30.60;;;18.02;;
21591;SDS011;10958;50.892;3.992;2023-02-11T17:34:54;45.15;;;27.48;;
21591;SDS011;10958;50.892;3.992;2023-02-11T17:37:20;43.78;;;27.00;;
21591;SDS011;10958;50.892;3.992;2023-02-11T17:39:46;44.33;;;25.88;;
21591;SDS011;10958;50.892;3.992;2023-02-11T17:42:16;38.80;;;24.85;;
21591;SDS011;10958;50.892;3.992;2023-02-11T17:44:43;35.50;;;23.95;;
21591;SDS011;10958;50.892;3.992;2023-02-11T17:47:09;38.65;;;25.58;;
21591;SDS011;10958;50.892;3.992;2023-02-11T17:49:35;38.97;;;25.80;;
21591;SDS011;10958;50.892;3.992;2023-02-11T17:52:02;40.53;;;25.98;;
21591;SDS011;10958;50.892;3.992;2023-02-11T17:54:28;40.45;;;25.88;;
21591;SDS011;10958;50.892;3.992;2023-02-11T17:56:54;43.20;;;25.98;;
21591;SDS011;10958;50.892;3.992;2023-02-11T17:59:20;41.35;;;27.25;;
21591;SDS011;10958;50.892;3.992;2023-02-11T18:01:49;44.03;;;28.13;;
21591;SDS011;10958;50.892;3.992;2023-02-11T18:04:16;43.60;;;27.00;;